Time;durP1;ratioP1;P1;durP2;ratioP2;P2;SDS_P1;SDS_P2;PMS_P1;PMS_P2;Temp;Humidity;BMP_temperature;BMP_pressure;BME280_temperature;BME280_humidity;BME280_pressure;Samples;Min_cycle;Max_cycle;Signal;HPM_P1;HPM_P2
2023/07/12 00:00:24;;;;;;;21.47;20.57;;;20.30;99.90;;;;;;5049638;28;20825;-75
2023/07/12 00:02:53;;;;;;;21.20;20.30;;;20.30;99.90;;;;;;5050226;28;20790;-73
2023/07/12 00:05:21;;;;;;;19.60;18.70;;;20.40;99.90;;;;;;5050363;28;20451;-75
2023/07/12 00:07:48;;;;;;;17.80;17.10;;;20.40;99.90;;;;;;5044809;28;20500;-76
2023/07/12 00:10:18;;;;;;;16.90;16.20;;;20.50;99.90;;;;;;5052624;28;20926;-76
2023/07/12 00:12:44;;;;;;;16.07;15.23;;;20.40;99.90;;;;;;5053550;28;20523;-75
2023/07/12 00:15:15;;;;;;;14.97;14.27;;;20.50;99.90;;;;;;5053621;28;20448;-76
2023/07/12 00:17:43;;;;;;;14.33;13.73;;;20.60;99.90;;;;;;5053941;28;20852;-76
2023/07/12 00:20:26;;;;;;;14.73;14.03;;;20.70;99.90;;;;;;5054603;28;20968;-77
2023/07/12 00:22:53;;;;;;;13.87;13.30;;;20.80;99.90;;;;;;5055461;28;20876;-77
2023/07/12 00:25:22;;;;;;;14.00;13.40;;;20.90;99.90;;;;;;5056144;28;20498;-77
2023/07/12 00:27:49;;;;;;;14.03;13.53;;;21.00;99.90;;;;;;5072505;28;20479;-78
2023/07/12 00:30:23;;;;;;;13.17;12.67;;;21.10;99.90;;;;;;5073311;28;20498;-79
2023/07/12 00:32:53;;;;;;;14.17;13.47;;;21.10;99.90;;;;;;5064444;28;20456;-78
2023/07/12 00:35:22;;;;;;;14.80;14.20;;;21.20;99.90;;;;;;5053995;28;20503;-76
2023/07/12 00:37:52;;;;;;;14.33;13.83;;;21.20;99.90;;;;;;5053261;28;20533;-76
2023/07/12 00:40:43;;;;;;;13.97;13.47;;;21.30;99.90;;;;;;5053203;28;20436;-76
2023/07/12 00:43:19;;;;;;;13.87;13.37;;;21.20;99.90;;;;;;5053141;28;20448;-77
2023/07/12 00:45:49;;;;;;;14.60;14.00;;;21.10;99.90;;;;;;5053172;28;20872;-76
2023/07/12 00:48:19;;;;;;;14.97;14.37;;;21.10;99.90;;;;;;5053114;28;21079;-77
2023/07/12 00:50:47;;;;;;;16.40;15.70;;;21.30;99.90;;;;;;5053124;28;20483;-77
2023/07/12 00:53:15;;;;;;;15.60;15.00;;;21.40;99.90;;;;;;5052957;28;20825;-77
2023/07/12 00:56:00;;;;;;;15.97;15.17;;;21.50;99.90;;;;;;5052996;28;20478;-77
2023/07/12 00:58:31;;;;;;;15.50;14.90;;;21.50;99.90;;;;;;5052948;28;20856;-78
2023/07/12 01:01:00;;;;;;;16.27;15.37;;;21.50;99.90;;;;;;5052903;28;20459;-77
2023/07/12 01:03:32;;;;;;;15.80;15.13;;;21.40;99.90;;;;;;5052875;28;20850;-78
2023/07/12 01:06:02;;;;;;;16.80;16.07;;;21.40;99.90;;;;;;5052762;28;20459;-77
2023/07/12 01:08:30;;;;;;;15.50;14.73;;;21.50;99.90;;;;;;5052324;28;20499;-77
2023/07/12 01:10:59;;;;;;;16.00;15.30;;;21.40;99.90;;;;;;5052685;28;20819;-77
2023/07/12 01:13:28;;;;;;;15.80;15.10;;;21.40;99.90;;;;;;5052685;28;20455;-78
2023/07/12 01:15:55;;;;;;;14.90;14.40;;;21.30;99.90;;;;;;5052514;28;20451;-78
2023/07/12 01:18:21;;;;;;;15.90;15.10;;;21.30;99.90;;;;;;5052564;28;20821;-77
2023/07/12 01:21:04;;;;;;;16.53;15.87;;;21.30;99.90;;;;;;5051536;28;20543;-77
2023/07/12 01:23:30;;;;;;;14.70;14.20;;;21.20;99.90;;;;;;5047049;28;20471;-77
2023/07/12 01:26:32;;;;;;;15.30;14.50;;;21.20;99.90;;;;;;5052364;28;20449;-78
2023/07/12 01:29:01;;;;;;;15.43;14.90;;;21.20;99.90;;;;;;5052195;28;20486;-78
2023/07/12 01:31:30;;;;;;;15.33;14.73;;;21.10;99.90;;;;;;5052396;28;20461;-78
2023/07/12 01:33:58;;;;;;;15.67;15.10;;;21.10;99.90;;;;;;5052275;28;20464;-77
2023/07/12 01:36:26;;;;;;;15.50;14.90;;;21.20;99.90;;;;;;5052133;28;20464;-78
2023/07/12 01:38:55;;;;;;;15.40;14.90;;;21.30;99.90;;;;;;5052214;28;20455;-78
2023/07/12 01:41:22;;;;;;;16.13;15.53;;;21.30;99.90;;;;;;5052199;28;20925;-78
2023/07/12 01:43:49;;;;;;;21.17;20.30;;;21.40;99.90;;;;;;5052239;28;20451;-78
2023/07/12 01:46:16;;;;;;;32.77;30.97;;;21.40;99.90;;;;;;5052159;28;20501;-79
2023/07/12 01:48:42;;;;;;;32.43;30.63;;;21.20;99.90;;;;;;5052571;28;20492;-84
2023/07/12 01:51:09;;;;;;;31.30;29.50;;;20.90;99.90;;;;;;5052316;28;20456;-87
2023/07/12 01:53:37;;;;;;;31.80;29.90;;;20.80;99.90;;;;;;5052484;28;20517;-84
2023/07/12 01:56:05;;;;;;;30.17;28.47;;;20.60;99.90;;;;;;5052018;28;20922;-81
2023/07/12 01:58:33;;;;;;;30.23;28.63;;;20.50;99.90;;;;;;5052143;28;20504;-80
2023/07/12 02:01:00;;;;;;;30.90;29.10;;;20.40;99.90;;;;;;5051882;28;20459;-78
2023/07/12 02:03:27;;;;;;;30.27;28.67;;;20.30;99.90;;;;;;5051661;28;20448;-77
2023/07/12 02:05:55;;;;;;;31.67;29.87;;;20.30;99.90;;;;;;5051585;28;20455;-77
2023/07/12 02:08:22;;;;;;;32.33;30.47;;;20.30;99.90;;;;;;5051405;28;20491;-75
2023/07/12 02:10:50;;;;;;;32.10;30.20;;;20.30;99.90;;;;;;5051574;28;20839;-75
2023/07/12 02:13:18;;;;;;;31.97;30.27;;;20.30;99.90;;;;;;5055632;28;20459;-75
2023/07/12 02:15:45;;;;;;;31.53;29.90;;;20.40;99.90;;;;;;5067388;28;20545;-76
2023/07/12 02:18:12;;;;;;;31.63;30.00;;;20.40;99.90;;;;;;5066798;28;20440;-76
2023/07/12 02:20:40;;;;;;;33.60;31.70;;;20.40;99.90;;;;;;5054578;28;20455;-76
2023/07/12 02:23:07;;;;;;;33.20;31.40;;;20.40;99.90;;;;;;5051822;28;20543;-77
2023/07/12 02:25:34;;;;;;;32.43;30.53;;;20.50;99.90;;;;;;5051435;28;20471;-76
2023/07/12 02:28:03;;;;;;;31.70;30.10;;;20.50;99.90;;;;;;5051437;28;20498;-77
2023/07/12 02:30:30;;;;;;;30.90;29.37;;;20.50;99.90;;;;;;5051387;28;20448;-77
2023/07/12 02:32:57;;;;;;;30.07;28.37;;;20.50;99.90;;;;;;5050862;28;20957;-76
2023/07/12 02:35:29;;;;;;;27.87;26.40;;;20.50;99.90;;;;;;5051238;28;20468;-76
2023/07/12 02:37:56;;;;;;;25.80;24.63;;;20.60;99.90;;;;;;5051361;28;20700;-77
2023/07/12 02:40:24;;;;;;;25.70;24.50;;;20.60;99.90;;;;;;5051211;28;20813;-77
2023/07/12 02:42:51;;;;;;;24.80;23.47;;;20.60;99.90;;;;;;5051227;28;20455;-77
2023/07/12 02:45:19;;;;;;;24.60;23.40;;;20.60;99.90;;;;;;5051272;28;20482;-76
2023/07/12 02:47:45;;;;;;;23.67;22.57;;;20.70;99.90;;;;;;5051094;28;20544;-76
2023/07/12 02:50:12;;;;;;;24.07;22.70;;;20.70;99.90;;;;;;5051088;28;20448;-76
2023/07/12 02:52:39;;;;;;;21.50;20.50;;;20.70;99.90;;;;;;5051083;28;20857;-75
2023/07/12 02:55:07;;;;;;;20.30;19.27;;;20.70;99.90;;;;;;5050860;28;20949;-76
2023/07/12 02:57:33;;;;;;;18.73;17.80;;;20.70;99.90;;;;;;5051103;28;20456;-76
2023/07/12 03:00:01;;;;;;;19.63;18.53;;;20.70;99.90;;;;;;5050884;28;20455;-76
2023/07/12 03:02:30;;;;;;;17.67;16.97;;;20.70;99.90;;;;;;5050937;28;20452;-77
2023/07/12 03:04:57;;;;;;;17.57;16.47;;;20.70;99.90;;;;;;5050913;28;20483;-78
2023/07/12 03:07:23;;;;;;;15.80;15.13;;;20.70;99.90;;;;;;5050698;28;20483;-79
2023/07/12 03:09:50;;;;;;;15.20;14.70;;;20.80;99.90;;;;;;5050834;28;20912;-79
2023/07/12 03:12:17;;;;;;;15.20;14.60;;;20.80;99.90;;;;;;5050901;28;20456;-79
2023/07/12 03:14:43;;;;;;;15.93;15.33;;;20.90;99.90;;;;;;5050959;28;20459;-79
2023/07/12 03:17:10;;;;;;;15.30;14.70;;;20.90;99.90;;;;;;5050889;28;20456;-80
2023/07/12 03:19:38;;;;;;;15.30;14.70;;;20.90;99.90;;;;;;5050969;28;20444;-80
2023/07/12 03:22:05;;;;;;;17.07;16.07;;;21.00;99.90;;;;;;5050864;28;20456;-80
2023/07/12 03:24:31;;;;;;;15.27;14.67;;;21.00;99.90;;;;;;5050828;28;20868;-79
2023/07/12 03:26:58;;;;;;;16.10;15.10;;;21.00;99.90;;;;;;5050804;28;20459;-78
2023/07/12 03:29:25;;;;;;;15.33;14.43;;;21.10;99.90;;;;;;5050698;28;20480;-78
2023/07/12 03:31:51;;;;;;;14.50;13.90;;;21.10;99.90;;;;;;5050729;28;20459;-78
2023/07/12 03:34:18;;;;;;;15.73;15.03;;;21.10;99.90;;;;;;5050802;28;20888;-79
2023/07/12 03:36:46;;;;;;;15.40;14.70;;;21.10;99.90;;;;;;5050715;28;20816;-78
2023/07/12 03:39:14;;;;;;;14.87;14.17;;;21.10;99.90;;;;;;5050647;28;20447;-78
2023/07/12 03:41:40;;;;;;;15.23;14.53;;;21.10;99.90;;;;;;5050866;28;20645;-78
2023/07/12 03:44:07;;;;;;;14.87;14.20;;;21.20;99.90;;;;;;5051649;28;20452;-78
2023/07/12 03:46:34;;;;;;;14.60;14.10;;;21.20;99.90;;;;;;5054503;28;20452;-76
2023/07/12 03:49:01;;;;;;;15.27;14.47;;;21.20;99.90;;;;;;5054192;28;21126;-76
2023/07/12 03:51:27;;;;;;;15.90;15.30;;;21.30;99.90;;;;;;5054484;28;20859;-75
2023/07/12 03:53:55;;;;;;;15.83;14.97;;;21.30;99.90;;;;;;5054190;28;20471;-76
2023/07/12 03:56:22;;;;;;;14.97;14.27;;;21.40;99.90;;;;;;5054350;28;20450;-76
2023/07/12 03:58:49;;;;;;;15.83;14.83;;;21.50;99.90;;;;;;5057990;28;20488;-76
2023/07/12 04:01:16;;;;;;;14.80;14.13;;;21.50;99.90;;;;;;5066978;28;20444;-76
2023/07/12 04:03:42;;;;;;;14.50;13.90;;;21.60;99.90;;;;;;5065560;28;20832;-76
2023/07/12 04:06:10;;;;;;;15.67;14.60;;;21.60;99.90;;;;;;5054706;28;20475;-76
2023/07/12 04:08:36;;;;;;;14.73;14.10;;;21.60;99.90;;;;;;5053617;28;20524;-75
2023/07/12 04:14:20;;;;;;;16.20;15.40;;;21.50;99.90;;;;;;5088583;28;20546;-77
2023/07/12 04:16:47;;;;;;;16.70;15.77;;;21.50;99.90;;;;;;5088463;28;20447;-77
2023/07/12 04:19:14;;;;;;;15.53;14.93;;;21.60;99.90;;;;;;5088580;28;20446;-83
2023/07/12 04:21:41;;;;;;;16.73;16.03;;;21.60;99.90;;;;;;5088847;28;20819;-76
2023/07/12 04:24:08;;;;;;;17.63;16.77;;;21.70;99.90;;;;;;5076921;28;20566;-76
2023/07/12 04:26:37;;;;;;;18.80;18.00;;;21.80;99.90;;;;;;5086185;28;20515;-77
2023/07/12 04:29:05;;;;;;;17.00;16.30;;;21.80;99.90;;;;;;5080568;28;20876;-75
2023/07/12 04:31:33;;;;;;;18.00;17.20;;;21.70;99.90;;;;;;5077838;28;20586;-76
2023/07/12 04:34:00;;;;;;;15.80;15.10;;;21.80;99.90;;;;;;5071467;28;20490;-74
2023/07/12 04:36:26;;;;;;;17.50;16.50;;;21.90;99.90;;;;;;5076582;28;20479;-74
2023/07/12 04:38:53;;;;;;;16.73;15.93;;;22.00;99.90;;;;;;5067698;28;20454;-73
2023/07/12 04:41:20;;;;;;;16.50;15.57;;;22.20;99.90;;;;;;5067820;28;20517;-73
2023/07/12 04:43:46;;;;;;;16.47;15.87;;;22.40;99.90;;;;;;5075671;28;20450;-74
2023/07/12 04:46:13;;;;;;;17.47;15.63;;;22.70;99.90;;;;;;5081464;28;20798;-74
2023/07/12 04:48:41;;;;;;;17.60;16.57;;;23.10;99.90;;;;;;5071519;28;20452;-74
2023/07/12 04:51:08;;;;;;;15.43;14.83;;;23.50;99.90;;;;;;5075899;28;20462;-74
2023/07/12 04:53:34;;;;;;;15.90;15.20;;;23.60;99.90;;;;;;5077853;28;20495;-73
2023/07/12 04:56:01;;;;;;;16.93;16.20;;;23.60;99.90;;;;;;5077441;28;20849;-74
2023/07/12 04:58:28;;;;;;;18.60;17.80;;;23.70;99.90;;;;;;5071272;28;20801;-74
2023/07/12 05:00:56;;;;;;;16.00;15.00;;;23.60;99.90;;;;;;5071208;28;20486;-73
2023/07/12 05:03:22;;;;;;;17.73;16.93;;;23.50;99.90;;;;;;5078482;28;20538;-73
2023/07/12 05:05:50;;;;;;;16.90;16.20;;;23.40;99.90;;;;;;5075489;28;20458;-73
2023/07/12 05:08:17;;;;;;;18.70;17.90;;;23.20;99.90;;;;;;5072188;28;20482;-73
2023/07/12 05:10:44;;;;;;;16.90;16.20;;;23.20;99.90;;;;;;5075868;28;20850;-73
2023/07/12 05:13:11;;;;;;;17.50;16.57;;;23.20;99.90;;;;;;5078824;28;20548;-74
2023/07/12 05:15:38;;;;;;;17.43;16.43;;;23.30;99.90;;;;;;5074658;28;20929;-74
2023/07/12 05:18:05;;;;;;;16.43;15.73;;;23.30;99.90;;;;;;5073751;28;20454;-75
2023/07/12 05:20:32;;;;;;;16.83;16.07;;;23.30;99.90;;;;;;5075981;28;20949;-73
2023/07/12 05:23:00;;;;;;;16.93;15.90;;;23.40;99.90;;;;;;5078214;28;20455;-73
2023/07/12 05:25:27;;;;;;;16.37;15.73;;;23.40;99.90;;;;;;5061618;28;20455;-73
2023/07/12 05:27:54;;;;;;;17.20;16.50;;;23.40;99.90;;;;;;5058707;28;20516;-76
2023/07/12 05:30:21;;;;;;;16.60;15.90;;;23.50;99.90;;;;;;5073822;28;20462;-76
2023/07/12 05:32:47;;;;;;;16.90;16.20;;;23.60;99.90;;;;;;5056979;28;20510;-75
2023/07/12 05:35:14;;;;;;;17.10;16.30;;;23.60;99.90;;;;;;5053786;28;20467;-76
2023/07/12 05:37:41;;;;;;;18.43;17.43;;;23.60;99.90;;;;;;5053693;28;20455;-75
2023/07/12 05:40:10;;;;;;;17.23;16.53;;;23.70;99.90;;;;;;5053509;28;20451;-76
2023/07/12 05:42:40;;;;;;;17.63;16.70;;;23.80;99.90;;;;;;5053454;28;20452;-76
2023/07/12 05:45:07;;;;;;;16.77;16.07;;;23.80;99.90;;;;;;5053201;28;20554;-76
2023/07/12 05:47:34;;;;;;;16.47;15.87;;;23.80;99.90;;;;;;5053170;28;20459;-76
2023/07/12 05:50:00;;;;;;;17.17;16.07;;;23.80;99.90;;;;;;5053440;28;20444;-76
2023/07/12 05:52:28;;;;;;;17.90;17.00;;;23.90;99.90;;;;;;5053173;28;20448;-76
2023/07/12 05:54:54;;;;;;;17.60;16.70;;;23.90;99.90;;;;;;5053130;28;20949;-76
2023/07/12 05:57:22;;;;;;;17.40;16.67;;;23.90;99.90;;;;;;5053354;28;20455;-76
2023/07/12 05:59:49;;;;;;;17.80;16.80;;;24.00;99.90;;;;;;5054035;28;20452;-82
2023/07/12 06:02:16;;;;;;;17.50;16.70;;;24.00;99.90;;;;;;5055925;28;20505;-81
2023/07/12 06:04:43;;;;;;;17.10;16.30;;;24.10;99.90;;;;;;5053815;28;20444;-82
2023/07/12 06:07:09;;;;;;;17.77;17.07;;;24.20;99.90;;;;;;5053833;28;20459;-82
2023/07/12 06:09:36;;;;;;;17.47;16.77;;;24.40;99.90;;;;;;5053523;28;20452;-82
2023/07/12 06:12:03;;;;;;;17.87;17.00;;;24.50;99.90;;;;;;5054350;28;20451;-83
2023/07/12 06:14:31;;;;;;;17.60;16.50;;;24.70;99.90;;;;;;5059168;28;20480;-81
2023/07/12 06:16:57;;;;;;;17.83;17.03;;;24.90;99.90;;;;;;5077559;28;20449;-82
2023/07/12 06:19:24;;;;;;;18.90;18.00;;;24.90;99.90;;;;;;5078275;28;20443;-82
2023/07/12 06:21:52;;;;;;;17.87;16.97;;;25.10;99.90;;;;;;5074602;28;20448;-81
2023/07/12 06:24:19;;;;;;;17.40;16.50;;;25.20;99.90;;;;;;5060421;28;20452;-83
2023/07/12 06:26:46;;;;;;;15.67;15.00;;;25.30;99.90;;;;;;5061130;28;20823;-82
2023/07/12 06:29:13;;;;;;;19.00;17.80;;;25.20;99.90;;;;;;5068007;28;20508;-81
2023/07/12 06:31:43;;;;;;;18.47;17.63;;;25.20;99.90;;;;;;5058526;28;20832;-82
2023/07/12 06:34:10;;;;;;;17.57;16.57;;;25.40;99.90;;;;;;5058719;28;20544;-82
2023/07/12 06:36:37;;;;;;;17.73;16.63;;;25.80;99.90;;;;;;5073665;28;20473;-84
2023/07/12 06:39:04;;;;;;;17.00;16.30;;;25.90;99.90;;;;;;5072420;28;20455;-77
2023/07/12 06:41:30;;;;;;;16.80;16.07;;;26.30;99.90;;;;;;5073116;28;20496;-79
2023/07/12 06:43:57;;;;;;;16.57;15.87;;;27.00;99.90;;;;;;5056138;28;20532;-85
2023/07/12 06:46:24;;;;;;;16.07;15.47;;;28.00;99.90;;;;;;5051480;28;20456;-85
2023/07/12 06:48:52;;;;;;;16.20;15.37;;;28.50;99.90;;;;;;5053106;28;20452;-86
2023/07/12 06:51:19;;;;;;;16.73;15.83;;;29.40;99.90;;;;;;5052654;28;20957;-86
2023/07/12 06:53:45;;;;;;;15.67;14.90;;;29.80;99.90;;;;;;5052266;28;20490;-84
2023/07/12 06:56:12;;;;;;;15.90;15.30;;;29.90;99.90;;;;;;5053836;28;20467;-84
2023/07/12 06:58:39;;;;;;;16.90;16.07;;;29.80;99.90;;;;;;5052949;28;20946;-85
2023/07/12 07:01:08;;;;;;;17.27;16.37;;;29.60;99.90;;;;;;5052088;28;20456;-87
2023/07/12 07:03:35;;;;;;;16.63;15.97;;;29.90;99.60;;;;;;5052895;28;20443;-85
2023/07/12 07:06:04;;;;;;;15.40;14.80;;;30.40;98.80;;;;;;5051990;28;20475;-88
2023/07/12 07:08:31;;;;;;;15.40;14.60;;;30.60;97.80;;;;;;5051819;28;20969;-86
2023/07/12 07:11:00;;;;;;;17.33;16.43;;;31.00;97.20;;;;;;5052641;28;20456;-90
2023/07/12 07:13:27;;;;;;;17.00;16.30;;;31.30;96.50;;;;;;5052393;28;20527;-88
2023/07/12 07:15:54;;;;;;;17.47;16.57;;;31.50;96.50;;;;;;5056995;28;20452;-91
2023/07/12 07:18:20;;;;;;;15.67;14.87;;;30.70;96.70;;;;;;5056027;28;20456;-90
2023/07/12 07:20:47;;;;;;;15.80;15.20;;;30.40;97.50;;;;;;5052498;28;20445;-89
2023/07/12 07:23:15;;;;;;;15.37;14.67;;;29.40;98.80;;;;;;5052451;28;20444;-89
2023/07/12 07:25:42;;;;;;;15.80;15.10;;;29.40;99.30;;;;;;5052388;28;20452;-90
2023/07/12 07:28:09;;;;;;;14.53;13.73;;;29.40;99.70;;;;;;5052596;28;20467;-91
2023/07/12 07:30:37;;;;;;;14.97;14.17;;;29.70;99.30;;;;;;5057146;28;20444;-90
2023/07/12 07:33:06;;;;;;;14.87;13.97;;;30.20;98.60;;;;;;5053600;28;20973;-89
2023/07/12 07:35:36;;;;;;;14.43;13.83;;;30.40;97.80;;;;;;5054163;28;20547;-91
2023/07/12 07:38:10;;;;;;;14.80;14.20;;;30.50;97.70;;;;;;5052320;28;20824;-91
2023/07/12 07:40:41;;;;;;;14.50;13.83;;;31.00;96.70;;;;;;5053261;28;20827;-90
2023/07/12 07:43:11;;;;;;;15.70;15.00;;;31.30;96.30;;;;;;5056101;28;20479;-89
2023/07/12 07:45:41;;;;;;;16.33;15.53;;;31.50;96.10;;;;;;5054062;28;20463;-92
2023/07/12 07:48:08;;;;;;;16.50;15.60;;;31.70;95.30;;;;;;5053317;28;20564;-89
2023/07/12 07:50:46;;;;;;;14.47;13.97;;;31.90;93.60;;;;;;5053142;28;20554;-90
2023/07/12 07:53:14;;;;;;;15.23;14.60;;;31.90;94.00;;;;;;5066174;28;20480;-90
2023/07/12 07:55:46;;;;;;;15.50;14.80;;;32.00;93.80;;;;;;5055697;28;20452;-90
2023/07/12 07:58:13;;;;;;;16.97;16.27;;;32.40;92.90;;;;;;5052327;28;20444;-86
2023/07/12 08:00:40;;;;;;;14.83;14.23;;;32.90;91.90;;;;;;5051163;28;20965;-85
2023/07/12 08:03:07;;;;;;;15.93;15.33;;;33.00;89.80;;;;;;5054538;28;20470;-87
2023/07/12 08:05:34;;;;;;;16.60;15.90;;;33.50;86.10;;;;;;5058797;28;20868;-87
2023/07/12 08:08:01;;;;;;;15.97;15.13;;;34.30;83.00;;;;;;5062633;28;20455;-88
2023/07/12 08:10:29;;;;;;;14.30;13.80;;;34.80;84.20;;;;;;5060825;28;20805;-88
2023/07/12 08:12:58;;;;;;;16.20;15.60;;;34.20;81.70;;;;;;5061700;28;20487;-90
2023/07/12 08:15:26;;;;;;;15.20;14.60;;;34.50;79.60;;;;;;5068689;28;20447;-90
2023/07/12 08:18:08;;;;;;;17.30;16.50;;;35.10;78.60;;;;;;5066518;28;20448;-91
2023/07/12 08:20:36;;;;;;;17.00;16.20;;;35.40;74.30;;;;;;5063335;28;20992;-92
2023/07/12 08:23:10;;;;;;;15.80;14.73;;;35.40;73.70;;;;;;5060588;28;20471;-92
2023/07/12 08:25:37;;;;;;;16.00;15.07;;;35.20;75.80;;;;;;5063955;28;20990;-92
2023/07/12 08:32:17;;;;;;;;;;;;;;;;;;;;;
2023/07/12 08:58:54;;;;;;;;;;;;;;;;;;;;;
2023/07/12 09:02:23;;;;;;;;;;;;;;;;;;;;;
2023/07/12 09:04:51;;;;;;;15.03;14.40;;;35.80;69.30;;;;;;4998242;28;20507;-86
2023/07/12 09:07:26;;;;;;;15.47;14.87;;;35.30;68.60;;;;;;5039862;28;20442;-89
2023/07/12 09:09:56;;;;;;;15.67;15.07;;;35.50;68.50;;;;;;5034822;28;20454;-90
2023/07/12 09:12:27;;;;;;;17.90;17.00;;;36.50;66.70;;;;;;5031784;28;20553;-89
2023/07/12 09:14:54;;;;;;;15.20;14.60;;;36.30;66.90;;;;;;5019290;28;21018;-90
2023/07/12 09:17:28;;;;;;;16.57;15.90;;;35.90;68.10;;;;;;5016017;28;20450;-89
2023/07/12 09:19:55;;;;;;;14.53;13.93;;;36.30;68.70;;;;;;5015926;28;20449;-91
2023/07/12 09:22:22;;;;;;;15.30;14.80;;;36.60;67.80;;;;;;5016386;28;20457;-90
2023/07/12 09:24:53;;;;;;;15.73;15.13;;;37.00;65.70;;;;;;5015263;28;20489;-89
2023/07/12 09:27:23;;;;;;;16.00;15.40;;;37.00;64.20;;;;;;5015718;28;20449;-90
2023/07/12 09:29:58;;;;;;;15.37;14.83;;;38.30;61.70;;;;;;5015224;28;20617;-89
2023/07/12 09:32:31;;;;;;;16.60;15.90;;;38.40;59.90;;;;;;5015653;28;20915;-89
2023/07/12 09:34:58;;;;;;;16.83;16.10;;;39.10;58.10;;;;;;5014224;28;20469;-90
2023/07/12 09:37:25;;;;;;;15.93;15.33;;;39.10;57.50;;;;;;5014683;28;20515;-91
2023/07/12 09:39:55;;;;;;;16.07;15.37;;;39.40;56.50;;;;;;5014052;28;20446;-92
2023/07/12 09:42:22;;;;;;;16.77;15.87;;;39.50;55.70;;;;;;5014924;28;20473;-93
2023/07/12 09:44:49;;;;;;;14.83;14.33;;;39.00;55.70;;;;;;5013722;28;20474;-89
2023/07/12 09:47:34;;;;;;;15.50;14.80;;;38.60;56.30;;;;;;5013725;28;20465;-89
2023/07/12 09:50:07;;;;;;;15.33;14.73;;;37.90;56.80;;;;;;5014047;28;20461;-91
2023/07/12 09:52:48;;;;;;;16.30;15.60;;;37.20;58.00;;;;;;5016668;28;20450;-86
2023/07/12 09:55:29;;;;;;;15.07;14.47;;;37.10;57.90;;;;;;5016012;28;20446;-86
2023/07/12 09:58:05;;;;;;;15.03;14.23;;;38.10;57.20;;;;;;5014218;28;20492;-88
2023/07/12 10:00:40;;;;;;;14.73;14.13;;;38.30;54.90;;;;;;5018869;28;20482;-84
2023/07/12 10:03:17;;;;;;;16.30;15.60;;;37.40;56.70;;;;;;5015911;28;20507;-86
2023/07/12 10:05:48;;;;;;;16.33;15.60;;;37.50;57.20;;;;;;5014803;28;20489;-87
2023/07/12 10:08:16;;;;;;;14.70;14.10;;;37.50;56.10;;;;;;5013151;28;20458;-84
2023/07/12 10:10:49;;;;;;;15.03;14.43;;;36.50;57.50;;;;;;5015505;28;20853;-83
2023/07/12 10:13:32;;;;;;;14.47;13.97;;;35.50;59.30;;;;;;5013225;28;20963;-84
2023/07/12 10:16:02;;;;;;;15.80;15.23;;;35.40;58.80;;;;;;5012992;28;20474;-83
2023/07/12 10:18:35;;;;;;;16.50;15.77;;;34.40;61.10;;;;;;5012857;28;20944;-85
2023/07/12 10:21:02;;;;;;;15.77;15.07;;;34.30;62.90;;;;;;5012342;28;20458;-85
2023/07/12 10:23:37;;;;;;;15.60;15.03;;;34.80;60.10;;;;;;5012550;28;20462;-86
2023/07/12 10:26:06;;;;;;;15.33;14.73;;;35.90;58.40;;;;;;5012726;28;20484;-87
2023/07/12 10:28:43;;;;;;;15.20;14.60;;;36.50;57.90;;;;;;5012501;28;20462;-86
2023/07/12 10:31:24;;;;;;;15.60;15.10;;;37.20;56.80;;;;;;5012329;28;20457;-84
2023/07/12 10:33:57;;;;;;;16.40;15.70;;;37.80;54.20;;;;;;5012601;28;20450;-84
2023/07/12 10:36:26;;;;;;;15.27;14.67;;;36.60;56.20;;;;;;5012195;28;20481;-85
2023/07/12 10:38:53;;;;;;;15.23;14.73;;;36.30;57.10;;;;;;5012599;28;20481;-86
2023/07/12 10:41:25;;;;;;;17.57;16.87;;;36.80;55.80;;;;;;5012716;28;20460;-85
2023/07/12 10:44:00;;;;;;;15.00;14.40;;;37.20;55.60;;;;;;5012864;28;20818;-84
2023/07/12 10:46:32;;;;;;;16.67;16.07;;;37.00;55.90;;;;;;5012950;28;20449;-83
2023/07/12 10:49:04;;;;;;;16.80;16.10;;;37.40;54.70;;;;;;5012467;28;20817;-85
2023/07/12 10:51:36;;;;;;;14.47;13.97;;;36.90;55.20;;;;;;5018583;28;20849;-84
2023/07/12 10:54:04;;;;;;;15.20;14.50;;;37.30;54.60;;;;;;5014635;28;20525;-85
2023/07/12 10:56:37;;;;;;;16.33;15.63;;;38.30;53.20;;;;;;5013413;28;20485;-83
2023/07/12 10:59:05;;;;;;;17.20;16.40;;;39.00;52.40;;;;;;5013331;28;20589;-83
2023/07/12 11:01:52;;;;;;;19.00;18.13;;;40.00;50.70;;;;;;5008714;28;21018;-85
2023/07/12 11:04:33;;;;;;;16.30;15.70;;;40.80;48.40;;;;;;5011998;28;20511;-86
2023/07/12 11:07:03;;;;;;;16.20;15.53;;;40.40;48.30;;;;;;5012570;28;20464;-85
2023/07/12 11:10:00;;;;;;;18.10;17.33;;;40.30;50.50;;;;;;5011333;28;20461;-84
2023/07/12 11:12:37;;;;;;;19.43;18.60;;;40.00;48.30;;;;;;5013224;28;20457;-85
2023/07/12 11:15:21;;;;;;;17.27;16.50;;;39.40;49.60;;;;;;5011697;28;20449;-86
2023/07/12 11:18:00;;;;;;;18.50;17.30;;;39.30;47.90;;;;;;5012007;28;20537;-84
2023/07/12 11:20:30;;;;;;;16.17;15.57;;;38.90;49.10;;;;;;5011862;28;20488;-85
2023/07/12 11:23:00;;;;;;;16.30;15.70;;;39.00;48.30;;;;;;5011513;28;20541;-83
2023/07/12 11:25:37;;;;;;;17.37;16.67;;;38.20;49.60;;;;;;5012910;28;20493;-84
2023/07/12 11:28:05;;;;;;;16.10;15.57;;;38.40;50.30;;;;;;5003083;28;20485;-86
2023/07/12 11:30:43;;;;;;;17.90;17.20;;;39.00;49.40;;;;;;4999309;28;20453;-85
2023/07/12 11:33:18;;;;;;;16.20;15.60;;;40.20;48.30;;;;;;5012234;28;20958;-85
2023/07/12 11:35:50;;;;;;;17.33;16.60;;;40.60;47.30;;;;;;4997365;28;20971;-83
2023/07/12 11:38:19;;;;;;;15.90;15.20;;;38.30;47.10;;;;;;4992493;28;20892;-84
2023/07/12 11:40:51;;;;;;;15.83;15.23;;;37.50;50.30;;;;;;4992651;28;20451;-85
2023/07/12 11:43:39;;;;;;;18.27;17.57;;;37.60;50.40;;;;;;4992301;28;20458;-84
2023/07/12 11:46:15;;;;;;;17.10;16.40;;;38.10;50.40;;;;;;4987576;28;20497;-85
2023/07/12 11:48:45;;;;;;;16.40;15.60;;;38.20;49.40;;;;;;4989993;28;20450;-84
2023/07/12 11:51:22;;;;;;;16.00;15.40;;;39.10;49.40;;;;;;4991741;28;20474;-84
2023/07/12 11:53:52;;;;;;;17.13;16.43;;;39.60;48.40;;;;;;4992653;28;20464;-82
2023/07/12 11:56:19;;;;;;;18.10;17.40;;;40.10;47.60;;;;;;4997030;28;20502;-82
2023/07/12 11:58:46;;;;;;;17.87;16.97;;;40.30;47.10;;;;;;4995792;28;20574;-82
2023/07/12 12:01:15;;;;;;;17.43;16.60;;;41.70;45.30;;;;;;4999704;28;20525;-83
2023/07/12 12:03:42;;;;;;;17.80;17.10;;;41.70;44.80;;;;;;4997027;28;20967;-83
2023/07/12 12:06:12;;;;;;;18.23;17.33;;;40.40;45.40;;;;;;4994261;28;20489;-80
2023/07/12 12:08:45;;;;;;;17.20;16.30;;;39.30;46.50;;;;;;4991797;28;20945;-82
2023/07/12 12:11:11;;;;;;;16.63;15.93;;;38.50;48.20;;;;;;4991956;28;20462;-82
2023/07/12 12:13:44;;;;;;;16.53;15.83;;;37.90;48.60;;;;;;4991564;28;20795;-82
2023/07/12 12:16:20;;;;;;;16.80;16.00;;;36.90;48.70;;;;;;4991383;28;20893;-82
2023/07/12 12:18:52;;;;;;;15.07;14.47;;;36.00;50.50;;;;;;4991891;28;20450;-84
2023/07/12 12:21:19;;;;;;;16.00;15.40;;;35.60;49.80;;;;;;4991742;28;20490;-82
2023/07/12 12:23:53;;;;;;;15.83;15.00;;;34.70;51.30;;;;;;4996809;28;20952;-82
2023/07/12 12:26:21;;;;;;;15.90;15.20;;;34.40;54.60;;;;;;5014136;28;20485;-82
2023/07/12 12:28:53;;;;;;;16.43;15.50;;;35.30;52.30;;;;;;5010767;28;20462;-82
2023/07/12 12:31:22;;;;;;;16.20;15.40;;;36.50;52.10;;;;;;5010886;28;20457;-83
2023/07/12 12:33:51;;;;;;;16.07;15.47;;;37.20;51.70;;;;;;5010913;28;20460;-81
2023/07/12 12:36:23;;;;;;;17.00;16.30;;;37.20;51.70;;;;;;5014823;28;20552;-82
2023/07/12 12:39:05;;;;;;;17.03;16.33;;;37.50;52.10;;;;;;5014869;28;20457;-74
2023/07/12 12:41:38;;;;;;;15.90;15.10;;;37.50;50.80;;;;;;5014855;28;20859;-81
2023/07/12 12:44:15;;;;;;;17.37;16.67;;;37.70;50.80;;;;;;5014817;28;20445;-76
2023/07/12 12:46:41;;;;;;;17.07;16.33;;;38.00;50.20;;;;;;5015113;28;20489;-81
2023/07/12 12:49:19;;;;;;;16.60;15.80;;;37.00;51.90;;;;;;5014602;28;20454;-80
2023/07/12 12:51:47;;;;;;;16.17;15.17;;;35.70;54.00;;;;;;5009645;28;20476;-80
2023/07/12 12:54:15;;;;;;;16.83;16.03;;;35.70;55.60;;;;;;5014574;28;20899;-79
2023/07/12 12:56:42;;;;;;;15.73;15.03;;;34.80;56.40;;;;;;5014419;28;20484;-78
2023/07/12 12:59:10;;;;;;;16.30;15.50;;;34.20;57.40;;;;;;5014487;28;20512;-79
2023/07/12 13:01:37;;;;;;;14.17;13.43;;;34.10;57.90;;;;;;5014393;28;20482;-78
2023/07/12 13:04:04;;;;;;;15.50;14.80;;;34.00;57.50;;;;;;5014520;28;20464;-79
2023/07/12 13:06:31;;;;;;;15.67;14.83;;;34.90;57.20;;;;;;5014190;28;20489;-78
2023/07/12 13:08:58;;;;;;;14.17;13.67;;;34.70;55.10;;;;;;5014441;28;20456;-78
2023/07/12 13:11:26;;;;;;;17.77;16.80;;;34.40;56.10;;;;;;5014213;28;20458;-79
2023/07/12 13:13:53;;;;;;;16.73;15.93;;;34.50;56.50;;;;;;5014155;28;20449;-78